createdAt,value
2019-01-12T00:02:10.255Z,5.70
2019-01-12T00:04:38.482Z,5.60
2019-01-12T00:07:20.995Z,5.20
2019-01-12T00:10:08.799Z,5.60
2019-01-12T00:12:49.995Z,5.80
2019-01-12T00:15:38.318Z,5.90
2019-01-12T00:18:18.956Z,5.50
2019-01-12T00:21:06.457Z,5.20
2019-01-12T00:23:47.450Z,5.50
2019-01-12T00:26:34.978Z,5.10
2019-01-12T00:29:16.017Z,4.70
2019-01-12T00:32:03.677Z,5.00
2019-01-12T00:34:32.768Z,5.30
2019-01-12T00:37:00.898Z,5.20
2019-01-12T00:39:42.017Z,5.30
2019-01-12T00:42:10.034Z,5.30
2019-01-12T00:44:52.072Z,4.40
2019-01-12T00:47:20.106Z,5.00
2019-01-12T00:50:06.150Z,5.40
2019-01-12T00:52:34.155Z,5.00
2019-01-12T00:55:14.375Z,5.10
2019-01-12T00:58:01.872Z,5.40
2019-01-12T01:00:42.253Z,5.10
2019-01-12T01:03:22.415Z,4.70
2019-01-12T01:05:50.482Z,5.10
2019-01-12T01:08:32.850Z,5.40
2019-01-12T01:11:00.817Z,5.30
2019-01-12T01:13:41.256Z,4.60
2019-01-12T01:16:09.316Z,5.40
2019-01-12T01:18:49.755Z,5.30
2019-01-12T01:21:17.791Z,5.60
2019-01-12T01:23:46.023Z,5.30
2019-01-12T01:26:33.754Z,5.30
2019-01-12T01:29:14.335Z,5.30
2019-01-12T01:31:42.529Z,5.20
2019-01-12T01:34:24.514Z,5.60
2019-01-12T01:36:52.508Z,5.50
2019-01-12T01:39:20.450Z,5.50
2019-01-12T01:42:01.208Z,5.40
2019-01-12T01:44:48.655Z,5.60
2019-01-12T01:47:29.401Z,5.60
2019-01-12T01:50:17.288Z,5.50
2019-01-12T01:52:58.006Z,5.70
2019-01-12T01:55:45.681Z,5.80
2019-01-12T01:58:13.663Z,5.60
2019-01-12T02:00:41.778Z,5.80
2019-01-12T02:03:09.754Z,5.60
2019-01-12T02:05:57.378Z,5.70
2019-01-12T02:08:38.046Z,4.90
2019-01-12T02:11:25.524Z,5.80
2019-01-12T02:14:06.104Z,5.70
2019-01-12T02:16:53.767Z,6.10
2019-01-12T02:19:34.198Z,5.90
2019-01-12T02:22:21.872Z,5.30
2019-01-12T02:25:02.489Z,5.20
2019-01-12T02:27:30.433Z,6.00
2019-01-12T02:29:58.359Z,6.10
2019-01-12T02:32:46.096Z,5.20
2019-01-12T02:35:14.139Z,6.10
2019-01-12T02:37:42.086Z,6.10
2019-01-12T02:40:11.023Z,6.10
2019-01-12T02:42:39.226Z,5.90
2019-01-12T02:45:07.859Z,6.00
2019-01-12T02:47:35.914Z,5.90
2019-01-12T02:50:17.696Z,5.90
2019-01-12T02:52:57.816Z,6.00
2019-01-12T02:55:45.246Z,6.00
2019-01-12T02:58:13.265Z,6.30
2019-01-12T03:00:41.362Z,6.40
2019-01-12T03:03:22.065Z,6.60
2019-01-12T03:06:09.483Z,6.40
2019-01-12T03:08:39.592Z,6.10
2019-01-12T03:11:07.578Z,6.30
2019-01-12T03:13:35.456Z,6.40
2019-01-12T03:16:03.996Z,6.40
2019-01-12T03:18:31.894Z,6.10
2019-01-12T03:21:19.483Z,5.90
2019-01-12T03:24:00.197Z,5.60
2019-01-12T03:26:28.065Z,5.70
2019-01-12T03:28:55.953Z,5.90
2019-01-12T03:31:23.860Z,5.70
2019-01-12T03:33:52.885Z,5.60
2019-01-12T03:36:20.875Z,5.80
2019-01-12T03:39:01.199Z,6.00
2019-01-12T03:41:29.062Z,6.10
2019-01-12T03:44:16.649Z,5.30
2019-01-12T03:46:57.437Z,5.90
2019-01-12T03:49:25.299Z,5.90
2019-01-12T03:51:53.296Z,6.20
2019-01-12T03:54:40.712Z,6.20
2019-01-12T03:57:21.152Z,6.10
2019-01-12T04:00:15.289Z,5.90
2019-01-12T04:02:56.360Z,5.90
2019-01-12T04:05:43.891Z,5.70
2019-01-12T04:08:24.473Z,5.90
2019-01-12T04:11:12.018Z,5.80
2019-01-12T04:13:52.571Z,5.00
2019-01-12T04:16:39.977Z,5.90
2019-01-12T04:19:20.710Z,5.90
2019-01-12T04:22:08.220Z,5.80
2019-01-12T04:24:48.698Z,5.30
2019-01-12T04:27:16.630Z,6.00
2019-01-12T04:29:44.548Z,5.70
2019-01-12T04:32:12.492Z,6.10
2019-01-12T04:34:54.470Z,5.90
2019-01-12T04:37:45.337Z,5.80
2019-01-12T04:40:25.856Z,5.30
2019-01-12T04:43:05.848Z,6.00
2019-01-12T04:45:33.843Z,6.00
2019-01-12T04:48:21.293Z,4.80
2019-01-12T04:50:49.891Z,6.00
2019-01-12T04:53:17.863Z,6.20
2019-01-12T04:56:00.466Z,6.20
2019-01-12T04:58:28.375Z,6.30
2019-01-12T05:00:56.448Z,6.20
2019-01-12T05:03:24.493Z,6.10
2019-01-12T05:05:52.546Z,6.00
2019-01-12T05:08:20.625Z,6.20
2019-01-12T05:10:49.547Z,6.00
2019-01-12T05:13:17.488Z,6.00
2019-01-12T05:16:00.393Z,5.20
2019-01-12T05:18:28.343Z,6.10
2019-01-12T05:21:15.985Z,6.20
2019-01-12T05:23:56.627Z,6.30
2019-01-12T05:26:44.049Z,6.20
2019-01-12T05:29:24.531Z,6.30
2019-01-12T05:32:11.995Z,6.30
2019-01-12T05:34:53.205Z,5.40
2019-01-12T05:37:40.691Z,5.90
2019-01-12T05:40:08.958Z,6.20
2019-01-12T05:42:36.874Z,6.30
2019-01-12T05:45:05.415Z,6.20
2019-01-12T05:47:53.756Z,6.20
2019-01-12T05:50:21.975Z,6.40
2019-01-12T05:53:09.412Z,6.20
2019-01-12T05:55:57.019Z,6.20
2019-01-12T05:58:39.939Z,5.40
2019-01-12T06:01:21.051Z,6.20
2019-01-12T06:04:08.414Z,6.30
2019-01-12T06:06:36.337Z,6.50
2019-01-12T06:09:24.001Z,6.30
2019-01-12T06:12:04.900Z,6.40
2019-01-12T06:14:52.329Z,6.00
2019-01-12T06:17:34.755Z,6.40
2019-01-12T06:20:22.180Z,6.30
2019-01-12T06:23:02.662Z,5.60
2019-01-12T06:25:30.614Z,6.50
2019-01-12T06:27:58.669Z,6.60
2019-01-12T06:30:26.621Z,6.70
2019-01-12T06:33:06.781Z,6.20
2019-01-12T06:35:54.623Z,6.40
2019-01-12T06:38:35.599Z,6.50
2019-01-12T06:41:03.476Z,6.50
2019-01-12T06:43:43.775Z,6.50
2019-01-12T06:46:31.310Z,6.40
2019-01-12T06:49:11.813Z,6.50
2019-01-12T06:51:52.171Z,5.40
2019-01-12T06:54:39.619Z,6.50
2019-01-12T06:57:20.601Z,6.30
2019-01-12T07:00:11.285Z,5.30
2019-01-12T07:02:52.063Z,5.20
2019-01-12T07:05:20.103Z,6.40
2019-01-12T07:08:01.164Z,6.20
2019-01-12T07:10:29.986Z,6.00
2019-01-12T07:13:10.259Z,6.20
2019-01-12T07:15:50.357Z,5.00
2019-01-12T07:18:18.352Z,5.90
2019-01-12T07:20:46.250Z,6.20
2019-01-12T07:23:26.551Z,6.30
2019-01-12T07:26:17.624Z,6.10
2019-01-12T07:28:50.186Z,6.10
2019-01-12T07:31:37.551Z,5.20
2019-01-12T07:34:18.536Z,6.00
2019-01-12T07:37:06.020Z,5.40
2019-01-12T07:39:33.982Z,6.30
2019-01-12T07:42:22.158Z,6.10
2019-01-12T07:44:50.120Z,6.10
2019-01-12T07:47:18.063Z,6.20
2019-01-12T07:49:46.086Z,6.30
2019-01-12T07:52:14.103Z,6.40
2019-01-12T07:54:42.070Z,6.50
2019-01-12T07:57:10.152Z,6.60
2019-01-12T07:59:38.357Z,7.00
2019-01-12T08:02:27.796Z,6.10
2019-01-12T08:05:10.341Z,6.90
2019-01-12T08:07:57.777Z,6.00
2019-01-12T08:10:42.191Z,5.90
2019-01-12T08:13:29.793Z,6.10
2019-01-12T08:15:57.730Z,7.00
2019-01-12T08:18:47.091Z,5.90
2019-01-12T08:21:27.891Z,6.90
2019-01-12T08:24:15.327Z,5.90
2019-01-12T08:26:55.735Z,6.80
2019-01-12T08:29:43.288Z,6.70
2019-01-12T08:32:11.285Z,6.80
2019-01-12T08:34:39.325Z,6.90
2019-01-12T08:37:07.427Z,7.20
2019-01-12T08:39:47.956Z,7.00
2019-01-12T08:42:35.524Z,6.90
2019-01-12T08:45:15.945Z,7.00
2019-01-12T08:47:56.955Z,7.00
2019-01-12T08:50:44.394Z,6.00
2019-01-12T08:53:25.427Z,7.00
2019-01-12T08:56:13.192Z,6.90
2019-01-12T08:58:54.890Z,7.00
2019-01-12T09:01:42.397Z,6.10
2019-01-12T09:04:23.259Z,7.00
2019-01-12T09:06:52.273Z,7.00
2019-01-12T09:09:33.108Z,6.20
2019-01-12T09:12:01.110Z,7.20
2019-01-12T09:14:42.300Z,6.00
2019-01-12T09:17:10.323Z,7.00
2019-01-12T09:19:38.603Z,7.10
2019-01-12T09:22:07.969Z,7.20
2019-01-12T09:24:36.633Z,7.50
2019-01-12T09:27:04.753Z,7.50
2019-01-12T09:29:47.166Z,7.60
2019-01-12T09:32:20.729Z,7.60
2019-01-12T09:35:01.086Z,6.90
2019-01-12T09:37:29.332Z,7.70
2019-01-12T09:40:10.722Z,7.50
2019-01-12T09:42:58.679Z,7.80
2019-01-12T09:45:39.856Z,7.50
2019-01-12T09:48:27.682Z,8.20
2019-01-12T09:50:55.661Z,8.20
2019-01-12T09:53:24.844Z,8.10
2019-01-12T09:56:12.281Z,7.60
2019-01-12T09:59:05.137Z,8.00
2019-01-12T10:01:33.466Z,7.90
2019-01-12T10:04:17.481Z,7.60
2019-01-12T10:06:45.832Z,8.20
2019-01-12T10:09:14.297Z,8.10
2019-01-12T10:11:43.199Z,8.10
2019-01-12T10:14:12.469Z,8.30
2019-01-12T10:16:41.083Z,8.00
2019-01-12T10:19:09.425Z,8.40
2019-01-12T10:21:37.464Z,8.10
2019-01-12T10:24:05.537Z,8.00
2019-01-12T10:26:33.513Z,8.10
2019-01-12T10:29:15.898Z,7.90
2019-01-12T10:32:03.760Z,7.80
2019-01-12T10:34:45.608Z,7.90
2019-01-12T10:37:33.326Z,7.80
2019-01-12T10:40:03.247Z,8.20
2019-01-12T10:42:31.744Z,7.80
2019-01-12T10:44:59.792Z,7.90
2019-01-12T10:47:47.838Z,7.00
2019-01-12T10:50:24.599Z,8.00
2019-01-12T10:53:12.667Z,8.00
2019-01-12T10:55:53.192Z,7.70
2019-01-12T10:58:41.385Z,8.00
2019-01-12T11:01:22.157Z,8.00
2019-01-12T11:04:03.838Z,7.70
2019-01-12T11:06:32.139Z,7.80
2019-01-12T11:09:15.375Z,7.90
2019-01-12T11:12:03.807Z,8.00
2019-01-12T11:14:44.561Z,8.10
2019-01-12T11:17:32.203Z,7.90
2019-01-12T11:20:13.438Z,6.40
2019-01-12T11:23:00.843Z,8.00
2019-01-12T11:25:43.717Z,7.90
2019-01-12T11:28:31.200Z,6.90
2019-01-12T11:31:12.431Z,7.60
2019-01-12T11:34:00.359Z,8.10
2019-01-12T11:36:28.342Z,8.10
2019-01-12T11:38:56.527Z,7.90
2019-01-12T11:41:24.587Z,7.80
2019-01-12T11:43:52.593Z,7.60
2019-01-12T11:46:22.846Z,7.80
2019-01-12T11:49:05.242Z,7.50
2019-01-12T11:51:45.560Z,7.60
2019-01-12T11:54:13.536Z,7.80
2019-01-12T11:56:41.698Z,7.80
2019-01-12T11:59:09.686Z,7.80
2019-01-12T12:01:37.772Z,7.50
2019-01-12T12:04:06.039Z,7.60
2019-01-12T12:06:35.227Z,7.60
2019-01-12T12:09:23.610Z,7.80
2019-01-12T12:12:03.819Z,7.70
2019-01-12T12:14:31.746Z,7.50
2019-01-12T12:16:59.915Z,7.40
2019-01-12T12:19:27.953Z,7.70
2019-01-12T12:21:55.947Z,7.70
2019-01-12T12:24:23.934Z,8.10
2019-01-12T12:26:52.317Z,8.10
2019-01-12T12:29:39.947Z,7.80
2019-01-12T12:32:20.355Z,8.00
2019-01-12T12:35:08.185Z,6.90
2019-01-12T12:37:36.212Z,8.30
2019-01-12T12:40:05.820Z,8.10
2019-01-12T12:42:45.958Z,7.30
2019-01-12T12:45:20.791Z,7.90
2019-01-12T12:47:49.684Z,7.60
2019-01-12T12:50:17.755Z,7.40
2019-01-12T12:52:45.850Z,7.50
2019-01-12T12:55:35.186Z,7.90
2019-01-12T12:58:24.857Z,7.70
2019-01-12T13:01:12.793Z,7.40
2019-01-12T13:03:53.916Z,7.50
2019-01-12T13:06:42.700Z,7.60
2019-01-12T13:09:10.822Z,7.30
2019-01-12T13:11:38.910Z,7.70
2019-01-12T13:14:07.044Z,7.30
2019-01-12T13:16:35.144Z,7.40
2019-01-12T13:19:19.478Z,7.70
2019-01-12T13:21:47.733Z,7.40
2019-01-12T13:24:28.715Z,7.20
2019-01-12T13:27:16.269Z,6.60
2019-01-12T13:29:57.161Z,6.50
2019-01-12T13:32:38.085Z,7.60
2019-01-12T13:35:07.007Z,7.70
2019-01-12T13:37:36.987Z,7.40
2019-01-12T13:40:26.190Z,7.70
2019-01-12T13:42:54.555Z,7.70
2019-01-12T13:45:42.190Z,7.50
2019-01-12T13:48:23.165Z,7.80
2019-01-12T13:51:10.883Z,7.70
2019-01-12T13:53:39.636Z,7.40
2019-01-12T13:56:07.833Z,7.80
2019-01-12T13:58:48.440Z,6.60
2019-01-12T14:01:16.630Z,7.30
2019-01-12T14:03:44.826Z,7.50
2019-01-12T14:06:34.894Z,7.40
2019-01-12T14:09:16.215Z,7.40
2019-01-12T14:11:44.527Z,7.10
2019-01-12T14:14:12.688Z,6.90
2019-01-12T14:16:41.058Z,7.10
2019-01-12T14:19:23.557Z,7.20
2019-01-12T14:21:51.773Z,6.70
2019-01-12T14:24:21.727Z,6.80
2019-01-12T14:26:50.769Z,6.90
2019-01-12T14:29:18.960Z,6.70
2019-01-12T14:31:47.778Z,6.80
2019-01-12T14:34:28.853Z,6.90
2019-01-12T14:37:11.016Z,6.90
2019-01-12T14:39:59.788Z,5.90
2019-01-12T14:42:41.443Z,6.80
2019-01-12T14:45:32.882Z,6.70
2019-01-12T14:48:01.356Z,6.60
2019-01-12T14:50:49.743Z,5.60
2019-01-12T14:53:30.757Z,6.90
2019-01-12T14:56:18.495Z,6.80
2019-01-12T14:58:59.842Z,6.80
2019-01-12T15:01:30.598Z,6.80
2019-01-12T15:03:58.823Z,7.10
2019-01-12T15:06:27.140Z,6.80
2019-01-12T15:08:55.367Z,6.90
2019-01-12T15:11:23.472Z,7.10
2019-01-12T15:13:51.682Z,6.80
2019-01-12T15:16:20.345Z,6.90
2019-01-12T15:19:01.612Z,7.00
2019-01-12T15:21:29.757Z,6.90
2019-01-12T15:23:58.306Z,6.90
2019-01-12T15:26:26.306Z,7.00
2019-01-12T15:28:54.589Z,6.60
2019-01-12T15:31:36.101Z,6.30
2019-01-12T15:34:16.857Z,6.00
2019-01-12T15:36:44.925Z,6.90
2019-01-12T15:39:13.000Z,6.90
2019-01-12T15:41:41.215Z,6.40
2019-01-12T15:44:21.547Z,6.50
2019-01-12T15:47:09.103Z,5.60
2019-01-12T15:49:37.051Z,6.60
2019-01-12T15:52:18.119Z,6.70
2019-01-12T15:54:59.317Z,6.80
2019-01-12T15:57:40.306Z,6.60
2019-01-12T16:00:29.380Z,5.90
2019-01-12T16:02:57.711Z,7.00
2019-01-12T16:05:27.157Z,6.90
2019-01-12T16:07:56.151Z,6.80
2019-01-12T16:10:43.953Z,6.00
2019-01-12T16:13:25.025Z,6.30
2019-01-12T16:16:12.571Z,6.30
2019-01-12T16:18:53.033Z,6.70
2019-01-12T16:21:40.532Z,6.20
2019-01-12T16:24:21.388Z,7.00
2019-01-12T16:26:49.494Z,7.00
2019-01-12T16:29:17.658Z,7.10
2019-01-12T16:31:45.870Z,7.20
2019-01-12T16:34:14.116Z,7.00
2019-01-12T16:37:01.757Z,7.10
2019-01-12T16:39:42.349Z,6.40
2019-01-12T16:42:30.074Z,7.20
2019-01-12T16:44:58.172Z,7.10
2019-01-12T16:47:26.181Z,6.90
2019-01-12T16:50:08.266Z,7.00
2019-01-12T16:52:55.754Z,6.80
2019-01-12T16:55:36.638Z,6.80
2019-01-12T16:58:17.010Z,6.20
2019-01-12T17:00:45.060Z,6.80
2019-01-12T17:03:26.031Z,6.70
2019-01-12T17:05:54.352Z,7.00
2019-01-12T17:08:22.405Z,6.80
2019-01-12T17:10:50.584Z,6.60
2019-01-12T17:13:18.840Z,6.70
2019-01-12T17:15:46.960Z,6.80
2019-01-12T17:18:15.513Z,6.90
2019-01-12T17:21:03.016Z,5.80
2019-01-12T17:23:43.525Z,6.10
2019-01-12T17:26:31.386Z,6.00
2019-01-12T17:29:17.684Z,6.70
2019-01-12T17:31:42.054Z,6.70
2019-01-12T17:34:24.900Z,6.00
2019-01-12T17:37:12.735Z,7.20
2019-01-12T17:39:40.849Z,6.80
2019-01-12T17:42:09.356Z,6.90
2019-01-12T17:44:37.451Z,6.90
2019-01-12T17:47:05.625Z,6.80
2019-01-12T17:49:33.813Z,6.90
2019-01-12T17:52:01.965Z,6.80
2019-01-12T17:54:30.268Z,6.90
2019-01-12T17:56:58.681Z,6.90
2019-01-12T17:59:40.829Z,6.80
2019-01-12T18:02:09.334Z,6.60
2019-01-12T18:04:37.488Z,6.60
2019-01-12T18:07:05.798Z,6.80
2019-01-12T18:09:34.052Z,6.70
2019-01-12T18:12:02.232Z,6.70
2019-01-12T18:14:30.315Z,6.80
2019-01-12T18:17:18.336Z,6.80
2019-01-12T18:19:46.313Z,6.60
2019-01-12T18:22:14.388Z,6.70
2019-01-12T18:24:42.849Z,6.70
2019-01-12T18:27:11.135Z,6.70
2019-01-12T18:29:51.771Z,6.60
2019-01-12T18:32:32.548Z,5.70
2019-01-12T18:35:13.466Z,6.70
2019-01-12T18:37:41.646Z,6.70
2019-01-12T18:40:25.555Z,6.70
2019-01-12T18:42:54.596Z,6.70
2019-01-12T18:45:22.785Z,6.70
2019-01-12T18:48:10.485Z,6.60
2019-01-12T18:50:50.949Z,5.80
2019-01-12T18:53:38.499Z,6.80
2019-01-12T18:56:19.694Z,6.90
2019-01-12T19:02:17.172Z,6.70
2019-01-12T19:04:45.288Z,6.70
2019-01-12T19:07:33.228Z,7.00
2019-01-12T19:10:13.730Z,5.80
2019-01-12T19:13:01.497Z,6.70
2019-01-12T19:15:41.974Z,6.00
2019-01-12T19:18:10.214Z,6.80
2019-01-12T19:20:55.099Z,6.70
2019-01-12T19:23:42.717Z,6.20
2019-01-12T19:26:23.993Z,7.10
2019-01-12T19:29:11.469Z,7.30
2019-01-12T19:31:52.269Z,7.40
2019-01-12T19:34:39.812Z,6.90
2019-01-12T19:37:20.891Z,6.90
2019-01-12T19:40:13.633Z,6.80
2019-01-12T19:42:55.323Z,6.40
2019-01-12T19:45:23.602Z,7.20
2019-01-12T19:47:52.375Z,7.00
2019-01-12T19:50:40.735Z,7.00
2019-01-12T19:53:28.451Z,7.10
2019-01-12T19:56:09.440Z,6.30
2019-01-12T19:58:57.109Z,7.20
2019-01-12T20:01:37.819Z,7.10
2019-01-12T20:04:18.355Z,7.10
2019-01-12T20:06:46.488Z,7.10
2019-01-12T20:09:14.684Z,7.00
2019-01-12T20:11:42.854Z,7.10
2019-01-12T20:14:11.011Z,7.40
2019-01-12T20:16:39.301Z,7.30
2019-01-12T20:19:07.528Z,7.20
2019-01-12T20:21:36.831Z,7.10
2019-01-12T20:24:05.431Z,7.10
2019-01-12T20:26:33.709Z,6.80
2019-01-12T20:29:02.001Z,7.10
2019-01-12T20:32:09.400Z,7.00
2019-01-12T20:35:12.596Z,7.00
2019-01-12T20:38:57.025Z,7.10
2019-01-12T20:42:01.893Z,7.30
2019-01-12T20:48:13.118Z,7.30
2019-01-12T20:51:04.998Z,7.30
2019-01-12T20:54:34.958Z,7.40
2019-01-12T20:57:48.494Z,7.40
2019-01-12T21:00:56.424Z,7.50
2019-01-12T21:03:56.206Z,7.60
2019-01-12T21:07:16.915Z,7.80
2019-01-12T21:10:07.129Z,7.40
2019-01-12T21:13:33.808Z,7.80
2019-01-12T21:16:16.681Z,7.10
2019-01-12T21:18:44.828Z,7.60
2019-01-12T21:21:13.007Z,8.00
2019-01-12T21:23:41.494Z,7.80
2019-01-12T21:26:09.608Z,7.70
2019-01-12T21:28:57.428Z,7.90
2019-01-12T21:31:45.036Z,6.80
2019-01-12T21:34:25.703Z,7.70
2019-01-12T21:37:13.325Z,7.40
2019-01-12T21:39:53.983Z,7.80
2019-01-12T21:42:41.615Z,7.70
2019-01-12T21:45:12.358Z,7.90
2019-01-12T21:48:00.133Z,7.00
2019-01-12T21:50:28.250Z,8.00
2019-01-12T21:52:56.364Z,8.00
2019-01-12T21:55:36.863Z,7.80
2019-01-12T21:58:24.646Z,7.90
2019-01-12T22:00:52.929Z,7.80
2019-01-12T22:03:21.206Z,8.00
2019-01-12T22:05:49.529Z,8.00
2019-01-12T22:08:17.772Z,7.80
2019-01-12T22:10:46.017Z,8.00
2019-01-12T22:13:14.209Z,8.00
2019-01-12T22:15:42.296Z,8.00
2019-01-12T22:18:26.760Z,8.10
2019-01-12T22:21:14.457Z,7.70
2019-01-12T22:23:56.279Z,8.00
2019-01-12T22:26:36.398Z,8.20
2019-01-12T22:29:17.500Z,8.10
2019-01-12T22:32:05.124Z,8.20
2019-01-12T22:34:45.589Z,8.00
2019-01-12T22:37:27.248Z,8.10
2019-01-12T22:39:55.575Z,8.00
2019-01-12T22:42:23.653Z,8.10
2019-01-12T22:44:51.818Z,8.40
2019-01-12T22:47:21.817Z,8.40
2019-01-12T22:49:49.880Z,8.40
2019-01-12T22:52:18.009Z,8.40
2019-01-12T22:54:46.406Z,8.50
2019-01-12T22:57:14.436Z,8.60
2019-01-12T22:59:42.982Z,8.30
2019-01-12T23:02:11.067Z,8.50
2019-01-12T23:04:53.495Z,8.40
2019-01-12T23:07:41.522Z,8.50
2019-01-12T23:10:22.784Z,8.40
2019-01-12T23:13:03.814Z,8.70
2019-01-12T23:15:51.437Z,7.90
2019-01-12T23:18:32.020Z,7.90
2019-01-12T23:21:19.702Z,8.40
2019-01-12T23:24:00.674Z,8.30
2019-01-12T23:26:41.973Z,8.40
2019-01-12T23:29:22.401Z,8.20
2019-01-12T23:32:03.300Z,8.60
2019-01-12T23:34:51.075Z,8.50
2019-01-12T23:37:19.081Z,9.10
2019-01-12T23:40:06.779Z,8.00
2019-01-12T23:42:47.689Z,8.00
2019-01-12T23:45:27.984Z,7.80
2019-01-12T23:48:08.159Z,8.40
2019-01-12T23:50:56.154Z,8.80
2019-01-12T23:53:36.630Z,7.80
2019-01-12T23:56:24.109Z,7.80
2019-01-12T23:59:04.925Z,8.80
